Airfield :
LOGIN :

Register | Disclaimer

   EN    FR    IT 

 










Legend :    VFR   Marginal VFR   IFR   Intensive IFR   Very Intensive IFR
Visi :
Ceiling :
>= 8 km
>= 3000ft
5 to 8 km
1000 to 3000 ft
1500m to 5 km
500 to 1000 ft
800 to 1500m
200 to 500 ft
< 800m
< 200 ft
Symbols :   Thunderstorms  Fog  Heavy snow  Heavy precipitations  Wind > 20 kt
SIGMETs :     Misc.  Thunderstorms  Icing  Turbulence  Mountain Waves  Volcanic Ashes






- Airport Elevation : 512 ft
- IATA code : URO


LFOP - Rouen Vallée de Seine

CURRENT METAR :
  • 161930Z AUTO 19014KT 9999 BKN007/// OVC011/// ///TCU 14/14 Q1006 TEMPO 2000 RADZ BKN004 OVC012 BECMG 28007KT

EXPIRED METARs :
  • 161900Z AUTO 19014KT 9000 RA OVC006/// ///CB 14/14 Q1006 TEMPO 2000 RADZ BKN004 OVC012 BECMG 28007KT
  • 161830Z AUTO 19017KT 4500 +RA BR OVC007/// ///CB 14/14 Q1005 TEMPO 2000 RADZ BKN004 OVC012 BECMG 28007KT
  • 161800Z AUTO 19016KT 6000 +RA OVC008/// ///TCU 14/13 Q1005 TEMPO 2000 RADZ BKN004 OVC012 BECMG 28007KT
  • 161730Z AUTO 18014KT 9999 OVC008 14/13 Q1005 TEMPO 4000 RA
  • 161700Z AUTO 18012KT 9999 -RA BKN007/// OVC011/// ///TCU 14/14 Q1005 TEMPO 4000 RA BKN007 OVC010

TAF AMD TAF LFOP
Valid from the 16 at 18:00 until the 17 at 18:00 UTC


161803Z 1618/1718 19015KT 6000 BKN007 BKN020
TEMPO 1618/1624 2000 RADZ BKN004 OVC012
BECMG 1619/1621 28007KT
BECMG 1700/1703 19007KT 4000 BR NSC
BECMG 1703/1706 BKN005
PROB30
TEMPO 1703/1706 0500 FG VV///
BECMG 1707/1710 9999 NSW BKN012
BECMG 1710/1712 SCT025
PROB30
TEMPO 1714/1717 4000 SHRA BKN008 BKN020TCU
ATIS : +33 2 35 80 80 34
Met : +33 2 32 86 52 80



MET'MAP, your aeronautical weather chart ! - Copyright ORBIFLY December 2007 - Disclaimer

ORBIFLY MET'MAP TEAM :

Programming & Development : Alexandra Zaïnal
Concept & Development : Baudouin d'Aumeries
Co-Development & Prog : Marc-Olivier Méhu
Technical & hardware support : Manuel Goepfert

Contact : metmap@orbifly.com




SOURCES & CREDITS :

   NOAA